createdAt,value
2019-01-27T00:01:38.972Z,9.80
2019-01-27T00:04:19.930Z,9.70
2019-01-27T00:06:58.745Z,9.60
2019-01-27T00:09:34.577Z,9.60
2019-01-27T00:12:10.355Z,9.50
2019-01-27T00:14:45.208Z,9.40
2019-01-27T00:17:20.525Z,9.30
2019-01-27T00:20:00.428Z,9.20
2019-01-27T00:22:37.363Z,9.20
2019-01-27T00:25:14.763Z,9.10
2019-01-27T00:27:50.574Z,9.10
2019-01-27T00:30:29.954Z,9.00
2019-01-27T00:33:05.253Z,8.90
2019-01-27T00:35:44.865Z,8.90
2019-01-27T00:38:23.920Z,8.90
2019-01-27T00:41:00.491Z,8.70
2019-01-27T00:43:37.535Z,8.60
2019-01-27T00:46:22.190Z,8.50
2019-01-27T00:48:56.704Z,8.50
2019-01-27T00:51:33.197Z,8.30
2019-01-27T00:54:08.158Z,8.20
2019-01-27T00:56:45.621Z,8.20
2019-01-27T00:59:26.648Z,8.10
2019-01-27T01:02:03.037Z,8.00
2019-01-27T01:04:44.099Z,7.90
2019-01-27T01:07:18.758Z,7.80
2019-01-27T01:09:57.029Z,7.70
2019-01-27T01:12:34.378Z,7.70
2019-01-27T01:15:10.189Z,7.60
2019-01-27T01:17:49.766Z,7.50
2019-01-27T01:20:26.002Z,7.50
2019-01-27T01:23:01.383Z,7.40
2019-01-27T01:25:36.629Z,7.30
2019-01-27T01:28:12.669Z,7.30
2019-01-27T01:30:49.330Z,7.20
2019-01-27T01:33:27.823Z,7.20
2019-01-27T01:36:06.116Z,7.10
2019-01-27T01:38:42.260Z,7.00
2019-01-27T01:41:19.947Z,6.90
2019-01-27T01:43:55.101Z,6.90
2019-01-27T01:46:29.895Z,6.90
2019-01-27T01:49:14.991Z,6.80
2019-01-27T01:51:51.794Z,6.70
2019-01-27T01:54:29.031Z,6.70
2019-01-27T01:57:03.381Z,6.70
2019-01-27T01:59:46.955Z,6.60
2019-01-27T02:02:23.575Z,6.60
2019-01-27T02:05:08.553Z,6.50
2019-01-27T02:07:54.423Z,6.40
2019-01-27T02:10:31.779Z,6.50
2019-01-27T02:13:07.416Z,6.50
2019-01-27T02:16:14.551Z,6.40
2019-01-27T02:18:49.868Z,6.40
2019-01-27T02:21:27.296Z,6.40
2019-01-27T02:24:07.458Z,6.40
2019-01-27T02:26:43.037Z,6.30
2019-01-27T02:29:17.760Z,6.30
2019-01-27T02:31:54.290Z,6.30
2019-01-27T02:34:30.198Z,6.30
2019-01-27T02:37:07.598Z,6.30
2019-01-27T02:39:53.220Z,6.30
2019-01-27T02:42:31.826Z,6.30
2019-01-27T02:45:10.680Z,6.30
2019-01-27T02:47:46.776Z,6.30
2019-01-27T02:50:21.489Z,6.30
2019-01-27T02:52:56.165Z,6.30
2019-01-27T02:55:33.846Z,6.30
2019-01-27T02:58:08.417Z,6.30
2019-01-27T03:00:43.822Z,6.30
2019-01-27T03:03:25.374Z,6.30
2019-01-27T03:06:30.605Z,6.30
2019-01-27T03:09:15.218Z,6.30
2019-01-27T03:11:52.257Z,6.30
2019-01-27T03:14:28.146Z,6.30
2019-01-27T03:17:04.205Z,6.30
2019-01-27T03:19:49.138Z,6.30
2019-01-27T03:22:25.674Z,6.30
2019-01-27T03:25:02.345Z,6.30
2019-01-27T03:27:39.914Z,6.30
2019-01-27T03:30:18.953Z,6.20
2019-01-27T03:32:55.277Z,6.20
2019-01-27T03:35:30.811Z,6.10
2019-01-27T03:38:08.609Z,6.10
2019-01-27T03:40:43.571Z,6.10
2019-01-27T03:43:26.178Z,6.10
2019-01-27T03:46:02.162Z,6.00
2019-01-27T03:48:43.391Z,6.00
2019-01-27T03:51:18.585Z,6.00
2019-01-27T03:53:57.092Z,6.00
2019-01-27T03:59:39.099Z,6.00
2019-01-27T04:02:17.225Z,5.90
2019-01-27T04:04:53.185Z,5.90
2019-01-27T04:07:30.083Z,5.90
2019-01-27T04:10:11.126Z,5.90
2019-01-27T04:12:49.650Z,5.80
2019-01-27T04:15:33.052Z,5.80
2019-01-27T04:18:13.220Z,5.70
2019-01-27T04:20:47.958Z,5.70
2019-01-27T04:23:25.580Z,5.70
2019-01-27T04:26:05.281Z,5.60
2019-01-27T04:28:44.426Z,5.50
2019-01-27T04:31:20.007Z,5.50
2019-01-27T04:34:18.629Z,5.50
2019-01-27T04:37:01.012Z,5.40
2019-01-27T04:39:40.627Z,5.40
2019-01-27T04:42:15.160Z,5.40
2019-01-27T04:45:15.782Z,5.30
2019-01-27T04:47:55.450Z,5.30
2019-01-27T04:50:30.689Z,5.30
2019-01-27T04:53:08.243Z,5.20
2019-01-27T04:55:45.789Z,5.20
2019-01-27T04:58:25.226Z,5.20
2019-01-27T05:01:03.953Z,5.20
2019-01-27T05:04:00.913Z,5.20
2019-01-27T05:06:39.825Z,5.20
2019-01-27T05:09:20.874Z,5.10
2019-01-27T05:12:10.864Z,5.10
2019-01-27T05:15:07.215Z,5.10
2019-01-27T05:18:22.563Z,5.00
2019-01-27T05:20:58.547Z,5.00
2019-01-27T05:23:33.188Z,5.00
2019-01-27T05:26:10.982Z,4.90
2019-01-27T05:28:48.369Z,5.00
2019-01-27T05:31:42.305Z,4.90
2019-01-27T05:34:23.077Z,4.90
2019-01-27T05:37:02.404Z,4.90
2019-01-27T05:40:01.257Z,4.90
2019-01-27T05:42:39.675Z,4.90
2019-01-27T05:45:33.498Z,4.90
2019-01-27T05:48:10.557Z,4.90
2019-01-27T05:50:58.225Z,4.90
2019-01-27T05:54:20.181Z,4.80
2019-01-27T05:57:17.567Z,4.80
2019-01-27T05:59:55.800Z,4.80
2019-01-27T06:02:42.346Z,4.80
2019-01-27T06:05:21.672Z,4.70
2019-01-27T06:08:02.031Z,4.70
2019-01-27T06:10:52.158Z,4.70
2019-01-27T06:14:32.346Z,4.70
2019-01-27T06:18:23.806Z,4.70
2019-01-27T06:21:29.970Z,4.70
2019-01-27T06:24:27.266Z,4.70
2019-01-27T06:31:02.088Z,4.70
2019-01-27T06:34:01.505Z,4.60
2019-01-27T06:36:52.421Z,4.60
2019-01-27T06:39:49.244Z,4.60
2019-01-27T06:42:34.393Z,4.60
2019-01-27T06:45:32.709Z,4.60
2019-01-27T06:48:11.468Z,4.60
2019-01-27T06:51:00.142Z,4.60
2019-01-27T06:53:57.363Z,4.60
2019-01-27T06:56:33.197Z,4.60
2019-01-27T06:59:37.488Z,4.50
2019-01-27T07:02:40.787Z,4.50
2019-01-27T07:05:52.167Z,4.50
2019-01-27T07:08:40.971Z,4.40
2019-01-27T07:11:31.429Z,4.40
2019-01-27T07:18:43.389Z,4.30
2019-01-27T07:22:10.611Z,4.30
2019-01-27T07:25:57.317Z,4.30
2019-01-27T07:33:17.536Z,4.10
2019-01-27T07:36:32.986Z,4.10
2019-01-27T07:47:35.918Z,3.90
2019-01-27T07:50:58.847Z,3.80
2019-01-27T07:54:16.929Z,3.80
2019-01-27T07:57:33.985Z,3.70
2019-01-27T08:00:33.368Z,3.70
2019-01-27T08:07:19.105Z,3.70
2019-01-27T08:10:58.778Z,3.70
2019-01-27T08:17:47.396Z,3.70
2019-01-27T08:21:03.046Z,3.60
2019-01-27T08:27:54.913Z,3.50
2019-01-27T08:31:28.170Z,3.40
2019-01-27T08:34:44.041Z,3.40
2019-01-27T08:38:44.047Z,3.30
2019-01-27T08:49:47.780Z,3.20
2019-01-27T08:52:33.921Z,3.20
2019-01-27T08:58:38.435Z,3.20
2019-01-27T09:01:49.344Z,3.20
2019-01-27T09:04:57.298Z,3.20
2019-01-27T09:07:56.640Z,3.20
2019-01-27T09:11:04.941Z,3.10
2019-01-27T09:14:06.238Z,3.20
2019-01-27T09:17:22.294Z,3.10
2019-01-27T09:24:03.316Z,3.00
2019-01-27T09:31:11.349Z,3.10
2019-01-27T09:34:36.679Z,3.00
2019-01-27T09:49:09.822Z,2.90
2019-01-27T09:52:07.236Z,2.90
2019-01-27T09:55:09.777Z,2.90
2019-01-27T09:58:29.956Z,2.90
2019-01-27T10:05:01.410Z,2.70
2019-01-27T10:08:28.340Z,2.60
2019-01-27T10:12:13.307Z,2.50
2019-01-27T10:19:17.145Z,2.50
2019-01-27T10:25:39.469Z,2.50
2019-01-27T10:28:51.814Z,2.50
2019-01-27T10:46:19.522Z,2.50
2019-01-27T11:07:49.018Z,2.40
2019-01-27T11:14:53.943Z,2.40
2019-01-27T11:22:17.550Z,2.40
2019-01-27T11:29:20.029Z,2.40
2019-01-27T11:32:37.896Z,2.40
2019-01-27T11:46:36.997Z,2.20
2019-01-27T11:53:14.157Z,2.10
2019-01-27T11:56:02.928Z,2.10
2019-01-27T11:59:33.824Z,2.10
2019-01-27T12:05:35.914Z,2.00
2019-01-27T12:08:45.113Z,2.00
2019-01-27T12:11:46.366Z,2.00
2019-01-27T12:14:40.488Z,2.00
2019-01-27T12:18:06.111Z,2.00
2019-01-27T12:21:10.438Z,1.90
2019-01-27T12:27:18.931Z,1.90
2019-01-27T12:30:01.209Z,1.90
2019-01-27T12:33:02.693Z,1.90
2019-01-27T12:38:55.205Z,2.00
2019-01-27T12:41:39.540Z,2.10
2019-01-27T12:44:26.486Z,2.00
2019-01-27T12:47:29.467Z,2.00
2019-01-27T12:50:19.827Z,2.00
2019-01-27T12:53:00.496Z,2.00
2019-01-27T12:59:13.221Z,2.00
2019-01-27T13:01:56.773Z,2.00
2019-01-27T13:05:01.799Z,2.00
2019-01-27T13:08:04.959Z,2.10
2019-01-27T13:11:06.282Z,2.10
2019-01-27T13:14:10.514Z,2.10
2019-01-27T13:17:39.197Z,2.20
2019-01-27T13:20:45.314Z,2.20
2019-01-27T13:26:49.584Z,2.40
2019-01-27T13:29:42.675Z,2.50
2019-01-27T13:32:22.788Z,2.60
2019-01-27T13:35:01.646Z,2.70
2019-01-27T13:38:03.713Z,2.80
2019-01-27T13:40:50.947Z,2.70
2019-01-27T13:43:35.066Z,2.80
2019-01-27T13:46:21.998Z,2.90
2019-01-27T13:49:37.991Z,2.90
2019-01-27T13:52:25.695Z,2.90
2019-01-27T13:55:14.263Z,2.90
2019-01-27T13:57:48.425Z,3.00
2019-01-27T14:01:01.845Z,3.00
2019-01-27T14:04:05.948Z,3.00
2019-01-27T14:18:10.235Z,3.10
2019-01-27T14:21:08.763Z,3.10
2019-01-27T14:23:57.680Z,3.10
2019-01-27T14:26:42.438Z,3.20
2019-01-27T14:29:32.467Z,3.20
2019-01-27T14:32:31.744Z,3.30
2019-01-27T14:35:37.003Z,3.30
2019-01-27T14:39:19.352Z,3.30
2019-01-27T14:42:36.480Z,3.30
2019-01-27T14:46:13.821Z,3.30
2019-01-27T14:49:59.990Z,3.30
2019-01-27T14:56:35.273Z,3.30
2019-01-27T14:59:13.339Z,3.30
2019-01-27T15:01:52.102Z,3.30
2019-01-27T15:04:40.199Z,3.30
2019-01-27T15:07:17.907Z,3.30
2019-01-27T15:10:01.722Z,3.30
2019-01-27T15:12:57.266Z,3.40
2019-01-27T15:15:52.810Z,3.40
2019-01-27T15:18:37.212Z,3.40
2019-01-27T15:21:28.300Z,3.50
2019-01-27T15:24:11.220Z,3.50
2019-01-27T15:26:49.344Z,3.50
2019-01-27T15:30:11.593Z,3.60
2019-01-27T15:33:10.307Z,3.60
2019-01-27T15:35:58.946Z,3.80
2019-01-27T15:38:55.718Z,3.70
2019-01-27T15:42:02.521Z,3.80
2019-01-27T15:44:48.514Z,3.80
2019-01-27T15:47:32.864Z,3.70
2019-01-27T15:54:36.190Z,3.80
2019-01-27T15:57:31.280Z,3.80
2019-01-27T16:00:06.593Z,3.80
2019-01-27T16:03:05.274Z,3.80
2019-01-27T16:05:42.013Z,3.90
2019-01-27T16:08:55.336Z,3.90
2019-01-27T16:11:38.552Z,4.00
2019-01-27T16:14:13.660Z,3.90
2019-01-27T16:17:30.682Z,4.00
2019-01-27T16:20:43.279Z,4.00
2019-01-27T16:23:48.604Z,4.00
2019-01-27T16:26:35.537Z,4.10
2019-01-27T16:29:10.803Z,4.10
2019-01-27T16:31:58.136Z,4.20
2019-01-27T16:34:50.249Z,4.20
2019-01-27T16:38:24.306Z,4.30
2019-01-27T16:41:31.529Z,4.30
2019-01-27T16:44:54.518Z,4.50
2019-01-27T16:47:50.977Z,4.50
2019-01-27T16:53:36.254Z,4.50
2019-01-27T16:56:26.819Z,4.60
2019-01-27T16:59:03.998Z,4.60
2019-01-27T17:01:48.491Z,4.60
2019-01-27T17:04:29.428Z,4.60
2019-01-27T17:07:06.193Z,4.70
2019-01-27T17:09:54.621Z,4.70
2019-01-27T17:12:37.949Z,4.70
2019-01-27T17:15:17.422Z,4.70
2019-01-27T17:18:14.029Z,4.70
2019-01-27T17:23:49.479Z,4.70
2019-01-27T17:26:25.804Z,4.70
2019-01-27T17:29:00.829Z,4.70
2019-01-27T17:31:48.303Z,4.80
2019-01-27T17:34:24.067Z,4.80
2019-01-27T17:36:59.479Z,4.80
2019-01-27T17:39:36.449Z,4.80
2019-01-27T17:42:23.252Z,4.80
2019-01-27T17:46:01.127Z,4.90
2019-01-27T17:48:59.668Z,4.70
2019-01-27T17:51:45.885Z,4.60
2019-01-27T17:54:24.512Z,4.60
2019-01-27T17:57:26.097Z,4.70
2019-01-27T18:04:10.975Z,4.70
2019-01-27T18:11:15.942Z,4.80
2019-01-27T18:14:24.866Z,4.70
2019-01-27T18:17:10.146Z,4.80
2019-01-27T18:24:24.948Z,5.00
2019-01-27T18:38:18.960Z,4.90
2019-01-27T18:40:54.069Z,4.90
2019-01-27T18:51:39.397Z,5.20
2019-01-27T19:06:05.462Z,5.10
2019-01-27T19:09:13.730Z,5.10
2019-01-27T19:12:12.049Z,5.20
2019-01-27T19:22:31.264Z,5.30
2019-01-27T19:29:44.578Z,5.40
2019-01-27T19:32:46.453Z,5.40
2019-01-27T19:38:58.392Z,5.30
2019-01-27T19:42:09.490Z,5.30
2019-01-27T19:45:19.352Z,5.40
2019-01-27T19:48:01.698Z,5.40
2019-01-27T19:50:57.238Z,5.40
2019-01-27T19:53:52.599Z,5.30
2019-01-27T19:56:52.775Z,5.30
2019-01-27T19:59:47.811Z,5.40
2019-01-27T20:02:46.074Z,5.40
2019-01-27T20:05:58.130Z,5.50
2019-01-27T20:08:47.941Z,5.50
2019-01-27T20:11:50.223Z,5.50
2019-01-27T20:14:48.601Z,5.50
2019-01-27T20:17:55.162Z,5.40
2019-01-27T20:20:48.689Z,5.40
2019-01-27T20:23:52.343Z,5.40
2019-01-27T20:27:01.204Z,5.50
2019-01-27T20:30:07.921Z,5.40
2019-01-27T20:33:17.695Z,5.50
2019-01-27T20:36:17.245Z,5.50
2019-01-27T20:39:16.145Z,5.50
2019-01-27T20:42:28.246Z,5.50
2019-01-27T20:45:28.332Z,5.50
2019-01-27T20:48:27.778Z,5.60
2019-01-27T20:51:21.039Z,5.60
2019-01-27T20:54:17.986Z,5.50
2019-01-27T20:57:19.744Z,5.60
2019-01-27T21:00:25.707Z,5.60
2019-01-27T21:03:15.735Z,5.60
2019-01-27T21:06:23.877Z,5.60
2019-01-27T21:09:22.032Z,5.60
2019-01-27T21:12:18.684Z,5.60
2019-01-27T21:15:28.668Z,5.80
2019-01-27T21:18:23.379Z,5.80
2019-01-27T21:21:00.656Z,5.70
2019-01-27T21:23:49.500Z,5.70
2019-01-27T21:26:33.065Z,5.70
2019-01-27T21:29:11.687Z,5.70
2019-01-27T21:31:57.311Z,5.80
2019-01-27T21:34:34.347Z,5.70
2019-01-27T21:37:13.614Z,5.70
2019-01-27T21:39:51.899Z,5.80
2019-01-27T21:42:32.087Z,5.80
2019-01-27T21:45:10.183Z,5.80
2019-01-27T21:47:50.586Z,5.80
2019-01-27T21:50:27.202Z,5.70
2019-01-27T21:53:05.324Z,5.80
2019-01-27T21:55:53.654Z,5.80
2019-01-27T21:58:30.177Z,5.80
2019-01-27T22:01:08.490Z,5.80
2019-01-27T22:03:56.404Z,5.80
2019-01-27T22:06:45.910Z,5.90
2019-01-27T22:09:22.894Z,5.90
2019-01-27T22:12:02.618Z,5.90
2019-01-27T22:14:47.646Z,5.90
2019-01-27T22:17:24.335Z,6.00
2019-01-27T22:20:04.922Z,5.90
2019-01-27T22:22:45.038Z,5.90
2019-01-27T22:25:28.880Z,5.80
2019-01-27T22:28:08.902Z,5.80
2019-01-27T22:30:45.732Z,5.80
2019-01-27T22:33:30.114Z,5.80
2019-01-27T22:36:07.768Z,5.80
2019-01-27T22:39:03.824Z,5.80
2019-01-27T22:41:48.389Z,5.70
2019-01-27T22:44:34.130Z,5.80
2019-01-27T22:47:14.955Z,5.80
2019-01-27T22:49:55.664Z,5.80
2019-01-27T22:52:34.675Z,5.80
2019-01-27T22:55:13.465Z,5.80
2019-01-27T22:57:53.014Z,5.80
2019-01-27T23:01:05.081Z,5.80
2019-01-27T23:03:51.331Z,5.80
2019-01-27T23:06:29.012Z,5.80
2019-01-27T23:09:06.368Z,5.70
2019-01-27T23:11:46.710Z,5.80
2019-01-27T23:14:23.511Z,5.80
2019-01-27T23:16:58.572Z,5.80
2019-01-27T23:19:33.738Z,5.90
2019-01-27T23:22:12.032Z,5.90
2019-01-27T23:24:54.539Z,5.90
2019-01-27T23:27:30.757Z,6.00
2019-01-27T23:30:07.345Z,5.90
2019-01-27T23:32:47.899Z,5.90
2019-01-27T23:35:27.040Z,5.90
2019-01-27T23:38:03.746Z,5.90
2019-01-27T23:40:42.885Z,5.90
2019-01-27T23:43:23.851Z,5.90
2019-01-27T23:48:56.363Z,6.00
2019-01-27T23:51:36.754Z,5.90
2019-01-27T23:54:14.016Z,6.00
2019-01-27T23:56:52.701Z,6.00
2019-01-27T23:59:37.686Z,6.00
